Race profile

BMW Frankfurt
Frankfurt GER
27 Oct 2013
Road
Marathon
Record quality course
Men: -60.61 sec (-1.43 sec/km)
Women: -121.98 sec (-2.89 sec/km)
Men: 759
Women: 767
Total: 11009
Men: 8871
Women: 2138
$316,090
Frankfurt

Results (men)

Finished Time Flags Given name Surname Alternate name Citizenship Birth date Prize money Actions
1 2:06:15 Vincent Kipruto Limo KEN 13 Sep 1987 $41,410
2 2:06:16 Mark Kiptoo Kosgei KEN 21 Jun 1976 $31,055
3 2:07:34 Elijah Kemboi Kiprono KEN 15 Aug 1984 $17,255
4 2:07:46 Jacob Korir Cheshari KEN 06 Apr 1984 $13,805
5 2:08:17 Albert Matebor Kiplagat KEN 20 Dec 1980 $5,520
6 2:09:17 Feyisa Bekele Woldemikael ETH 04 Aug 1983 $4,140
7 2:09:22 Dino Sefir Kemal ETH 28 May 1988 $2,760
8 2:10:01 Lani Kiplagat Rutto KEN 29 Mar 1989 $2,070
9 2:10:23 Richard Sigei Kiprotich KEN 11 May 1984 $1,380
10 2:11:05 Abdellatif Meftah FRA 03 Jan 1982 $690
11 2:11:52 Vitaliy Shafar UKR 27 Jan 1982
12 2:12:17 Jonathan Kiptoo Yego KEN 1976
13 2:12:55 Eric Ndiema KEN 28 Dec 1992
14 2:13:07 Johnstone Kibet Maiyo KEN 06 Oct 1988
15 2:14:28 Edwin Kipyego KEN 16 Nov 1990
16 2:14:33 Valerijs Zolnerovics LAT 19 Apr 1985
17 2:14:38 Mohamed Burka Bati ETH 08 May 1990
18 2:15:08 Nicholas Torry ENG 19 Feb 1977
19 2:15:21 David Webb ENG 17 Mar 1982
20 2:15:54 Grigoriy Andreyev RUS 07 Jan 1976
21 2:16:14 Tola Bane Edea ETH 21 Mar 1988
22 2:16:49 Edwin Kipchirchir Kemboi KEN 20 Jun 1984
23 2:16:59 Urige Buta Arado NOR 28 Nov 1978
24 2:17:36 Ilja Nikolajev EST 03 Jul 1981
25 2:18:33 Ross Houston SCO 05 Dec 1979
26 2:19:27 Jose España Comendador ESP 05 May 1986
27 2:19:37 Jiri Homolac CZE 25 Feb 1990
28 2:20:41 Andrew Davies WAL 30 Oct 1979
29 2:21:00 Philip Wicks ENG 14 Mar 1984
30 2:21:26 Markus Weiß-Latzko GER 06 Jul 1984
31 2:21:44 Paul Molyneux ENG 27 Jan 1981
32 2:21:52 Neil Renault ENG 30 Jul 1983
33 2:21:56 Vit Pavlista CZE 22 Mar 1985
34 2:21:58 Chris Barnicle USA 31 Mar 1987
36 2:22:34 Aaron Scott ENG 11 Apr 1987
39 2:23:38 Gebo Burka Gameda ETH 27 Sep 1987
40 2:23:47 Dickson Kimeli Cheruiyot KEN 1986
42 2:24:00 Antony Ford ENG 26 May 1983
44 2:24:07 Debele Tekelemedihen Senbeta ETH 1977
45 2:24:08 David Norman ENG 04 Nov 1978
49 2:26:23 Karol Grunenberg GER 1987
51 2:27:35 Andreas Høye NOR 1984
53 2:28:18 Nick Swinburn ENG 11 May 1988
54 2:28:21 Jakub Wisniewski POL 03 Nov 1977
65 2:29:39 Lukas Stähli SUI 11 Nov 1982
67 2:30:11 Yrjö Pesonen FIN 23 Mar 1964
70 2:30:26 Markus Werker GER 1986
83 2:32:39 Ruben Oliver SUI 15 May 1976
84 2:32:50 Damian Witkowski POL 15 Mar 1987
87 2:33:00 Jan Kreisinger CZE 16 Sep 1984

Results (women)

Finished Time Flags Given name Surname Alternate name Citizenship Birth date Prize money Actions
1 2:22:34 Caroline Cheptonui Kilel KEN 21 Mar 1981 $69,015
2 2:23:00 Filomena Chepchirchir Mbote KEN 01 Dec 1981 $37,960
3 2:23:01 Birhane Dibaba Adugna ETH 11 Sep 1993 $34,510
4 2:23:23 Mamitu Daska Molisa ETH 16 Oct 1983 $31,055
5 2:23:45 Eunice Kirwa Jepkirui KEN 20 May 1984 $12,425
6 2:24:06 Yeshi Esayias Tesemma ETH 28 Dec 1985 $4,140
7 2:26:57 Tirfe Beyene Tsegay ETH 25 Nov 1984 $2,760
8 2:27:55 Anna Hahner GER 20 Nov 1989 $2,070
9 2:28:49 Hilda Kibet NED 17 Mar 1981 $1,380
10 2:29:42 Maja Neuenschwander SUI 13 Feb 1980 $690
11 2:30:17 Lisa Hahner GER 20 Nov 1989
12 2:30:40 Gelete Burika Bati ETH 23 Jan 1986
13 2:34:24 Catherine Bertone ITA 06 May 1972
14 2:36:40 Hayley Haining SCO 06 Mar 1972
15 2:39:22 Joasia Zakrzewski SCO 19 Jan 1976
16 2:39:35 Emily Wicks Adams ENG 27 Jan 1985
17 2:41:54 Magali DiMarco Messmer SUI 09 Sep 1971
18 2:42:39 Gemma Rankin SCO 18 Dec 1984
19 2:43:08 Meseret Legese Regesa ETH 28 Aug 1987
20 2:44:18 Hayley Munn ENG 17 Sep 1990
21 2:44:56 Ursula Jeitziner Spielmann SUI 14 Mar 1972
22 2:45:59 Sarka Machackova Dyrova CZE 15 Sep 1983
23 2:47:11 Tinka Uphoff GER 28 Feb 1983
24 2:47:20 Julia Brengel Keck GER 17 Apr 1974
25 2:48:05 Mira Tuominen FIN 01 Dec 1981
26 2:48:22 Monika Oberlin SUI 27 Feb 1986
27 2:48:29 Fride-Buer Vullum NOR 21 Feb 1976
28 2:49:16 Daniela Aeschbacher SUI 17 Jan 1978
29 2:50:45 Jenny Schulz GER 28 Nov 1983
31 2:54:08 Luzia Schmid SUI 07 Oct 1974
33 2:55:34 Birgit Bohn GER 20 Feb 1971
34 2:55:51 Eva Offermann GER 1983
37 2:56:54 Fiona Maycock ENG 21 Aug 1967
39 2:57:43 Anke Holljesiefken GER 18 Jun 1973
40 2:57:59 Gabi Hoffmeister GER
41 2:58:16 Sari Juuti FIN 14 Feb 1973
42 2:58:26 Sheena Logan SCO 27 Jan 1984
43 2:58:32 Sonja vonOpel GER 14 Mar 1976
47 3:00:49 Aleksandra Fortin SLO 05 Apr 1972
61 3:06:29 Karin Schön SWE 17 May 1962
600? 4:25:23 Penny Elliott ENG 23 Feb 1943